Time;durP1;ratioP1;P1;durP2;ratioP2;P2;SDS_P1;SDS_P2;PMS_P1;PMS_P2;Temp;Humidity;BMP_temperature;BMP_pressure;BME280_temperature;BME280_humidity;BME280_pressure;Samples;Min_cycle;Max_cycle;Signal;HPM_P1;HPM_P2
2022/12/06 00:02:12;;;;;;;;;;;4.20;69.50;;;-0.82;100.00;95732.25;4997788;28;20368;-52
2022/12/06 00:04:38;;;;;;;;;;;4.20;69.50;;;-0.85;100.00;95735.22;5011956;28;19963;-51
2022/12/06 00:07:04;;;;;;;;;;;4.30;69.50;;;-0.85;100.00;95737.84;5007350;28;20367;-53
2022/12/06 00:09:31;;;;;;;;;;;4.20;69.30;;;-0.88;100.00;95731.19;4997329;28;19920;-51
2022/12/06 00:11:58;;;;;;;;;;;4.20;69.30;;;-0.92;100.00;95727.34;4999029;28;20008;-51
2022/12/06 00:14:27;;;;;;;;;;;4.20;69.30;;;-0.94;100.00;95731.94;4994554;28;19963;-53
2022/12/06 00:16:55;;;;;;;;;;;4.20;69.30;;;-0.99;100.00;95729.09;4986918;28;19913;-52
2022/12/06 00:19:24;;;;;;;;;;;4.10;69.30;;;-1.04;100.00;95721.81;5014551;28;19915;-51
2022/12/06 00:21:50;;;;;;;;;;;4.10;69.30;;;-1.10;100.00;95713.91;5014951;28;20001;-50
2022/12/06 00:24:21;;;;;;;;;;;4.00;69.20;;;-1.09;100.00;95720.78;5016181;28;20017;-50
2022/12/06 00:26:52;;;;;;;;;;;3.90;69.10;;;-1.14;100.00;95723.13;5005424;28;19909;-51
2022/12/06 00:29:27;;;;;;;;;;;3.90;69.20;;;-1.13;100.00;95725.53;4995867;28;19915;-50
2022/12/06 00:31:55;;;;;;;;;;;3.90;69.30;;;-1.17;100.00;95722.50;5009208;28;19910;-50
2022/12/06 00:34:21;;;;;;;;;;;3.90;69.30;;;-1.24;100.00;95726.88;4982904;28;19919;-50
2022/12/06 00:36:47;;;;;;;;;;;3.80;69.30;;;-1.27;100.00;95718.59;5022241;28;20506;-50
2022/12/06 00:39:19;;;;;;;;;;;3.80;69.30;;;-1.33;100.00;95725.38;4989275;28;19914;-50
2022/12/06 00:41:45;;;;;;;;;;;3.80;69.30;;;-1.37;100.00;95713.69;4992553;28;19910;-50
2022/12/06 00:44:19;;;;;;;;;;;3.70;69.30;;;-1.42;100.00;95710.81;4997829;28;20394;-50
2022/12/06 00:46:45;;;;;;;;;;;3.70;69.30;;;-1.44;100.00;95707.59;5013113;28;20019;-49
2022/12/06 00:49:11;;;;;;;;;;;3.60;69.20;;;-1.49;100.00;95704.72;4995578;28;20008;-49
2022/12/06 00:51:40;;;;;;;;;;;3.60;69.30;;;-1.49;100.00;95699.50;4995000;28;20000;-49
2022/12/06 00:54:09;;;;;;;;;;;3.60;69.40;;;-1.52;100.00;95699.88;5004522;28;19909;-49
2022/12/06 00:56:36;;;;;;;;;;;3.50;69.40;;;-1.53;100.00;95690.41;4994993;28;20245;-51
2022/12/06 00:59:06;;;;;;;;;;;3.50;69.50;;;-1.57;100.00;95689.16;4995583;28;19920;-51
2022/12/06 01:01:34;;;;;;;;;;;3.50;69.50;;;-1.63;100.00;95691.53;4994006;28;19912;-51
2022/12/06 01:04:05;;;;;;;;;;;3.50;69.50;;;-1.65;100.00;95695.31;5006028;28;19913;-49
2022/12/06 01:06:34;;;;;;;;;;;3.50;69.50;;;-1.69;100.00;95688.84;5004773;28;19909;-49
2022/12/06 01:09:08;;;;;;;;;;;3.40;69.40;;;-1.73;100.00;95696.22;4972058;28;19916;-49
2022/12/06 01:11:37;;;;;;;;;;;3.40;69.50;;;-1.73;100.00;95691.00;5012995;28;19909;-49
2022/12/06 01:14:04;;;;;;;;;;;3.40;69.50;;;-1.71;100.00;95691.63;5010995;28;19909;-49
2022/12/06 01:16:30;;;;;;;;;;;3.30;69.50;;;-1.70;100.00;95693.25;5013178;28;19909;-49
2022/12/06 01:19:03;;;;;;;;;;;3.30;69.60;;;-1.69;100.00;95697.50;5012708;28;19924;-49
2022/12/06 01:21:29;;;;;;;;;;;3.30;69.60;;;-1.76;100.00;95682.72;5009916;28;20324;-49
2022/12/06 01:23:58;;;;;;;;;;;3.30;69.50;;;-1.82;100.00;95689.50;4991052;28;19924;-51
2022/12/06 01:26:33;;;;;;;;;;;3.30;69.50;;;-1.87;100.00;95697.91;5001671;28;19959;-49
2022/12/06 01:29:03;;;;;;;;;;;3.30;69.50;;;-1.92;100.00;95697.63;5013228;28;19956;-48
2022/12/06 01:31:30;;;;;;;;;;;3.20;69.50;;;-1.93;100.00;95701.25;4994397;28;19969;-51
2022/12/06 01:33:58;;;;;;;;;;;3.20;69.50;;;-1.95;100.00;95699.81;4958605;28;20024;-48
2022/12/06 01:36:27;;;;;;;;;;;3.20;69.50;;;-1.97;100.00;95702.59;5015783;28;20595;-49
2022/12/06 01:38:57;;;;;;;;;;;3.10;69.50;;;-1.99;100.00;95696.75;4992579;28;19916;-48
2022/12/06 01:41:27;;;;;;;;;;;3.10;69.50;;;-2.00;100.00;95702.16;5005720;28;20008;-49
2022/12/06 01:43:54;;;;;;;;;;;3.10;69.60;;;-2.03;100.00;95697.31;5010315;28;19909;-48
2022/12/06 01:46:43;;;;;;;;;;;3.10;69.60;;;-2.02;100.00;95693.69;5010740;28;19916;-49
2022/12/06 01:49:11;;;;;;;;;;;3.10;69.60;;;-2.03;100.00;95697.31;4994746;28;20303;-49
2022/12/06 01:52:02;;;;;;;;;;;3.00;69.60;;;-2.11;100.00;95690.38;4996723;28;19912;-48
2022/12/06 01:54:44;;;;;;;;;;;3.00;69.60;;;-2.11;100.00;95693.00;5012113;28;19913;-48
2022/12/06 01:57:15;;;;;;;;;;;3.00;69.60;;;-2.13;100.00;95693.19;4988924;28;20014;-48
2022/12/06 01:59:42;;;;;;;;;;;3.00;70.50;;;-2.16;100.00;95692.75;4994337;28;20004;-48
2022/12/06 02:02:08;;;;;;;;;;;2.90;69.70;;;-2.17;100.00;95685.88;5009917;28;19956;-48
2022/12/06 02:04:35;;;;;;;;;;;2.90;69.70;;;-2.20;100.00;95691.47;5010704;28;19920;-48
2022/12/06 02:07:03;;;;;;;;;;;2.90;69.80;;;-2.23;100.00;95684.81;4994429;28;19909;-48
2022/12/06 02:09:35;;;;;;;;;;;2.90;69.80;;;-2.23;100.00;95684.81;5005120;28;19909;-48
2022/12/06 02:12:01;;;;;;;;;;;2.90;69.80;;;-2.25;100.00;95688.63;4991859;28;19916;-48
2022/12/06 02:14:34;;;;;;;;;;;2.90;69.80;;;-2.23;100.00;95684.00;5002149;28;19913;-48
2022/12/06 02:17:58;;;;;;;;;;;2.90;69.80;;;-2.22;100.00;95681.22;4987692;28;19916;-48
2022/12/06 02:20:57;;;;;;;;;;;2.90;69.90;;;-2.21;100.00;95671.59;4996513;28;19909;-49
2022/12/06 02:24:09;;;;;;;;;;;2.90;70.00;;;-2.17;100.00;95678.06;4972117;28;20004;-49
2022/12/06 02:26:59;;;;;;;;;;;2.90;70.00;;;-2.15;100.00;95674.28;4979483;28;20382;-49
2022/12/06 02:29:42;;;;;;;;;;;2.80;70.00;;;-2.16;100.00;95674.47;4999420;28;19920;-48
2022/12/06 02:32:20;;;;;;;;;;;2.80;70.00;;;-2.17;100.00;95665.00;4990719;28;20352;-48
2022/12/06 02:34:58;;;;;;;;;;;2.80;70.00;;;-2.17;100.00;95665.81;4994205;28;20295;-48
2022/12/06 02:37:57;;;;;;;;;;;2.80;69.90;;;-2.20;100.00;95663.56;4970186;28;20366;-48
2022/12/06 02:40:34;;;;;;;;;;;2.80;70.00;;;-2.23;100.00;95661.31;5008432;28;20406;-48
2022/12/06 02:43:30;;;;;;;;;;;2.80;70.00;;;-2.27;100.00;95661.88;4993631;28;19962;-48
2022/12/06 02:46:03;;;;;;;;;;;2.80;70.00;;;-2.27;100.00;95665.28;4981234;28;20465;-48
2022/12/06 02:48:33;;;;;;;;;;;2.80;70.10;;;-2.27;100.00;95660.06;4976525;28;19909;-48
2022/12/06 02:51:07;;;;;;;;;;;2.80;70.90;;;-2.26;100.00;95655.66;5009521;28;19916;-49
2022/12/06 02:53:40;;;;;;;;;;;2.80;70.10;;;-2.28;100.00;95655.06;5009413;28;20018;-48
2022/12/06 02:56:07;;;;;;;;;;;2.80;70.20;;;-2.26;100.00;95653.84;4992759;28;19946;-47
2022/12/06 02:58:37;;;;;;;;;;;2.70;70.10;;;-2.25;100.00;95646.88;4993597;28;20007;-49
2022/12/06 03:01:48;;;;;;;;;;;2.80;70.10;;;-2.28;100.00;95642.00;4993135;28;19913;-48
2022/12/06 03:04:45;;;;;;;;;;;2.80;70.10;;;-2.30;100.00;95646.59;4965470;28;20035;-48
2022/12/06 03:07:38;;;;;;;;;;;2.70;70.10;;;-2.35;100.00;95650.56;4996020;28;20360;-47
2022/12/06 03:10:39;;;;;;;;;;;2.70;70.00;;;-2.38;100.00;95647.50;5000670;28;19909;-47
2022/12/06 03:14:08;;;;;;;;;;;2.70;70.00;;;-2.47;100.00;95657.22;4998107;28;19916;-48
2022/12/06 03:17:28;;;;;;;;;;;2.70;70.00;;;-2.45;100.00;95644.00;4874537;29;20462;-47
2022/12/06 03:20:26;;;;;;;;;;;2.70;70.10;;;-2.49;100.00;95647.97;4870961;29;19926;-48
2022/12/06 03:23:03;;;;;;;;;;;2.60;70.10;;;-2.49;100.00;95640.13;4865895;29;20010;-48
2022/12/06 03:25:36;;;;;;;;;;;2.60;70.10;;;-2.53;100.00;95642.31;4862299;29;19919;-47
2022/12/06 03:28:09;;;;;;;;;;;2.60;70.10;;;-2.53;100.00;95638.88;4868769;29;20389;-46
2022/12/06 03:30:35;;;;;;;;;;;2.60;70.10;;;-2.55;100.00;95639.06;4861092;29;20013;-48
2022/12/06 03:33:08;;;;;;;;;;;2.60;70.10;;;-2.54;100.00;95637.25;4880220;29;20523;-47
2022/12/06 03:35:36;;;;;;;;;;;2.50;70.10;;;-2.57;100.00;95631.44;4874278;29;19922;-48
2022/12/06 03:38:14;;;;;;;;;;;2.50;70.20;;;-2.56;100.00;95627.03;4874048;29;19942;-47
2022/12/06 03:40:51;;;;;;;;;;;2.50;70.20;;;-2.59;100.00;95622.16;4858852;29;20014;-47
2022/12/06 03:43:18;;;;;;;;;;;2.50;70.20;;;-2.60;100.00;95621.34;4873943;29;19974;-47
2022/12/06 03:46:12;;;;;;;;;;;2.50;70.20;;;-2.59;100.00;95624.78;4874927;29;19922;-47
2022/12/06 03:49:18;;;;;;;;;;;2.50;70.20;;;-2.61;100.00;95629.34;4981063;28;20372;-47
2022/12/06 03:51:45;;;;;;;;;;;2.50;70.20;;;-2.60;100.00;95628.34;4992313;28;19959;-47
2022/12/06 03:54:17;;;;;;;;;;;2.50;70.30;;;-2.55;100.00;95626.00;4992847;28;19955;-47
2022/12/06 03:56:43;;;;;;;;;;;2.50;70.30;;;-2.54;100.00;95637.25;4991902;28;19917;-47
2022/12/06 03:59:10;;;;;;;;;;;2.50;70.30;;;-2.58;100.00;95629.78;4993025;28;19909;-47
2022/12/06 04:01:38;;;;;;;;;;;2.50;70.20;;;-2.62;100.00;95631.16;4974470;28;19909;-47
2022/12/06 04:04:09;;;;;;;;;;;2.50;70.30;;;-2.64;100.00;95622.69;5002478;28;20295;-47
2022/12/06 04:06:35;;;;;;;;;;;2.50;70.10;;;-2.66;100.00;95623.88;5012994;28;20252;-50
2022/12/06 04:11:47;;;;;;;;;;;2.40;70.00;;;-2.72;100.00;95633.22;4997020;28;19915;-48
2022/12/06 04:14:13;;;;;;;;;;;2.40;70.10;;;-2.70;100.00;95633.03;5005925;28;19917;-47
2022/12/06 04:19:25;;;;;;;;;;;2.40;70.10;;;-2.69;100.00;95640.69;5012463;28;19923;-47
2022/12/06 04:24:38;;;;;;;;;;;2.40;70.20;;;-2.74;100.00;95645.63;5013474;28;19967;-47
2022/12/06 04:40:51;;;;;;;;;;;2.40;70.70;;;-2.56;100.00;95637.44;5023065;28;19942;-52
2022/12/06 04:46:11;;;;;;;;;;;2.60;70.90;;;-2.43;100.00;95635.00;5003101;28;20479;-53
2022/12/06 04:48:43;;;;;;;;;;;2.60;70.90;;;-2.39;100.00;95641.47;4995064;28;19909;-55
2022/12/06 04:51:11;;;;;;;;;;;2.60;70.90;;;-2.28;100.00;95642.00;5009789;28;19909;-54
2022/12/06 04:53:37;;;;;;;;;;;2.70;70.90;;;-2.22;100.00;95631.66;5010435;28;20012;-51
2022/12/06 04:56:09;;;;;;;;;;;2.80;71.00;;;-2.14;100.00;95628.09;4998500;28;20003;-51
2022/12/06 04:58:35;;;;;;;;;;;2.80;71.00;;;-2.07;100.00;95630.78;4993264;28;19916;-46
2022/12/06 05:01:04;;;;;;;;;;;2.90;71.00;;;-2.01;100.00;95622.22;5012044;28;19909;-53
2022/12/06 05:03:30;;;;;;;;;;;3.00;71.00;;;-1.93;100.00;95619.50;5007495;28;20027;-51
2022/12/06 05:05:59;;;;;;;;;;;3.00;71.00;;;-1.88;100.00;95614.50;4994389;28;19955;-54
2022/12/06 05:08:24;;;;;;;;;;;3.10;71.00;;;-1.85;100.00;95614.13;4993640;28;20675;-51
2022/12/06 05:10:59;;;;;;;;;;;3.20;71.00;;;-1.81;100.00;95618.00;4977875;28;19909;-52
2022/12/06 05:13:25;;;;;;;;;;;3.20;70.90;;;-1.82;100.00;95610.34;5012204;28;19917;-51
2022/12/06 05:16:01;;;;;;;;;;;3.30;70.90;;;-1.82;100.00;95598.09;4984189;28;19918;-49
2022/12/06 05:18:27;;;;;;;;;;;3.30;70.80;;;-1.79;100.00;95605.56;4992411;28;19913;-52
2022/12/06 05:21:12;;;;;;;;;;;3.30;70.70;;;-1.73;100.00;95604.81;4984277;28;20015;-49
2022/12/06 05:23:41;;;;;;;;;;;3.30;70.70;;;-1.72;100.00;95600.41;5012023;28;20298;-54
2022/12/06 05:26:17;;;;;;;;;;;3.40;70.80;;;-1.63;100.00;95600.09;5008050;28;20407;-51
2022/12/06 05:28:45;;;;;;;;;;;3.40;70.90;;;-1.54;100.00;95597.34;5002811;28;20012;-51
2022/12/06 05:31:12;;;;;;;;;;;3.50;70.90;;;-1.52;100.00;95588.31;4993960;28;19909;-51
2022/12/06 05:33:39;;;;;;;;;;;3.50;70.90;;;-1.47;100.00;95587.78;4985465;28;20881;-50
2022/12/06 05:36:10;;;;;;;;;;;3.60;70.90;;;-1.46;100.00;95584.94;4974020;28;19920;-52
2022/12/06 05:38:42;;;;;;;;;;;3.60;70.90;;;-1.43;100.00;95581.97;4974071;28;19910;-55
2022/12/06 05:41:08;;;;;;;;;;;3.60;70.80;;;-1.40;100.00;95589.41;4974043;28;19921;-54
2022/12/06 05:43:34;;;;;;;;;;;3.70;70.80;;;-1.33;100.00;95578.22;4991198;28;19921;-48
2022/12/06 05:46:07;;;;;;;;;;;3.70;70.90;;;-1.30;100.00;95575.22;4957217;28;19933;-54
2022/12/06 05:48:33;;;;;;;;;;;3.80;70.90;;;-1.26;100.00;95576.44;4974271;28;20294;-51
2022/12/06 05:50:59;;;;;;;;;;;3.80;70.80;;;-1.24;100.00;95580.50;4957403;28;19913;-51
2022/12/06 05:53:29;;;;;;;;;;;3.80;70.70;;;-1.22;100.00;95572.47;4958375;28;19921;-52
2022/12/06 05:55:54;;;;;;;;;;;3.90;70.80;;;-1.20;100.00;95581.72;4989344;28;19913;-50
2022/12/06 05:58:23;;;;;;;;;;;3.90;70.70;;;-1.18;100.00;95581.53;4991595;28;20287;-55
2022/12/06 06:00:50;;;;;;;;;;;3.90;70.70;;;-1.16;100.00;95589.97;4990367;28;20368;-51
2022/12/06 06:03:19;;;;;;;;;;;4.00;70.70;;;-1.12;100.00;95588.63;4960737;28;19916;-51
2022/12/06 06:05:48;;;;;;;;;;;4.00;70.70;;;-1.10;100.00;95589.22;4959981;28;19920;-47
2022/12/06 06:08:20;;;;;;;;;;;4.00;70.70;;;-1.09;100.00;95585.63;4973187;28;20357;-54
2022/12/06 06:10:45;;;;;;;;;;;4.10;70.70;;;-1.04;100.00;95587.66;4979420;28;19909;-51
2022/12/06 06:13:11;;;;;;;;;;;4.10;70.70;;;-1.01;100.00;95589.88;4954239;28;19960;-49
2022/12/06 06:15:38;;;;;;;;;;;4.10;70.60;;;-0.95;100.00;95578.66;4962780;28;19913;-52
2022/12/06 06:18:07;;;;;;;;;;;4.20;70.70;;;-0.95;100.00;95582.06;4954585;28;19914;-53
2022/12/06 06:20:33;;;;;;;;;;;4.20;70.60;;;-0.90;100.00;95580.72;4960907;28;19933;-49
2022/12/06 06:22:59;;;;;;;;;;;4.20;70.50;;;-0.86;100.00;95581.94;4958866;28;19917;-50
2022/12/06 06:25:25;;;;;;;;;;;4.30;70.60;;;-0.86;100.00;95584.53;4954158;28;20303;-51
2022/12/06 06:27:51;;;;;;;;;;;4.30;70.60;;;-0.88;100.00;95573.44;4957602;28;19909;-55
2022/12/06 06:30:17;;;;;;;;;;;4.30;70.60;;;-0.84;100.00;95585.16;4951089;28;19924;-51
2022/12/06 06:32:46;;;;;;;;;;;4.30;70.50;;;-0.83;100.00;95578.94;4988346;28;19917;-51
2022/12/06 06:35:15;;;;;;;;;;;4.40;70.60;;;-0.80;100.00;95586.38;4966260;28;20351;-54
2022/12/06 06:37:41;;;;;;;;;;;4.40;70.50;;;-0.76;100.00;95585.00;4979887;28;20379;-51
2022/12/06 06:40:07;;;;;;;;;;;4.40;70.50;;;-0.75;100.00;95584.81;4969220;28;19920;-52
2022/12/06 06:42:33;;;;;;;;;;;4.40;70.50;;;-0.73;100.00;95584.59;4985301;28;19917;-51
2022/12/06 06:44:59;;;;;;;;;;;4.50;70.50;;;-0.73;100.00;95577.56;4988550;28;20360;-51
2022/12/06 06:47:27;;;;;;;;;;;4.50;70.50;;;-0.74;100.00;95575.94;4923625;28;22879;-52
2022/12/06 06:49:53;;;;;;;;;;;4.50;70.40;;;-0.69;100.00;95570.13;4952003;28;20402;-55
2022/12/06 06:52:19;;;;;;;;;;;4.50;70.40;;;-0.66;100.00;95569.75;4973025;28;19913;-51
2022/12/06 06:54:44;;;;;;;;;;;4.50;70.40;;;-0.72;100.00;95563.50;4979262;28;19910;-52
2022/12/06 06:57:10;;;;;;;;;;;4.60;70.40;;;-0.71;100.00;95570.34;4989252;28;19933;-54
2022/12/06 06:59:36;;;;;;;;;;;4.60;70.30;;;-0.68;100.00;95565.72;4961600;28;19982;-51
2022/12/06 07:02:02;;;;;;;;;;;4.60;70.30;;;-0.67;100.00;95573.38;4987010;28;20328;-51
2022/12/06 07:04:30;;;;;;;;;;;4.60;70.30;;;-0.66;100.00;95567.13;4950960;28;20546;-48
2022/12/06 07:06:56;;;;;;;;;;;4.60;70.30;;;-0.64;100.00;95570.38;4970130;28;19920;-52
2022/12/06 07:09:22;;;;;;;;;;;4.60;70.30;;;-0.62;100.00;95568.38;4935055;28;19967;-51
2022/12/06 07:11:48;;;;;;;;;;;4.60;70.30;;;-0.59;100.00;95570.59;4964911;28;20380;-51
2022/12/06 07:14:13;;;;;;;;;;;4.70;70.40;;;-0.59;100.00;95570.59;4955100;28;19913;-54
2022/12/06 07:16:39;;;;;;;;;;;4.70;70.40;;;-0.57;100.00;95570.38;4963509;28;19917;-52
2022/12/06 07:19:05;;;;;;;;;;;4.70;70.30;;;-0.53;100.00;95579.47;4971525;28;19917;-49
2022/12/06 07:21:34;;;;;;;;;;;4.70;70.30;;;-0.48;100.00;95570.03;4982693;28;19994;-54
2022/12/06 07:24:00;;;;;;;;;;;4.80;70.30;;;-0.49;100.00;95567.63;4971856;28;19909;-54
2022/12/06 07:26:27;;;;;;;;;;;4.80;70.30;;;-0.40;100.00;95576.09;4977628;28;19917;-55
2022/12/06 07:28:56;;;;;;;;;;;4.90;70.30;;;-0.35;100.00;95573.69;4985001;28;19918;-52
2022/12/06 07:31:29;;;;;;;;;;;4.90;70.20;;;-0.30;100.00;95576.53;4984419;28;20447;-48
2022/12/06 07:34:00;;;;;;;;;;;5.00;70.30;;;-0.26;100.00;95580.38;4978329;28;20722;-50
2022/12/06 07:36:31;;;;;;;;;;;5.00;70.20;;;-0.22;100.00;95581.56;4959863;28;20639;-54
2022/12/06 07:39:03;;;;;;;;;;;5.10;71.00;;;-0.17;100.00;95586.25;4969430;28;20279;-51
2022/12/06 07:47:07;;;;;;;;;;;5.40;70.10;;;0.01;100.00;95586.50;4975128;28;19916;-53
2022/12/06 07:49:32;;;;;;;;;;;5.50;70.10;;;0.06;100.00;95583.25;4972110;28;20008;-50
2022/12/06 07:52:02;;;;;;;;;;;5.50;70.00;;;0.10;100.00;95574.81;4991379;28;20008;-48
2022/12/06 07:54:28;;;;;;;;;;;5.60;69.90;;;0.14;100.00;95589.13;4960268;28;19962;-54
2022/12/06 07:56:55;;;;;;;;;;;5.60;69.80;;;0.14;100.00;95573.41;4969626;28;19909;-54
2022/12/06 07:59:21;;;;;;;;;;;5.70;69.60;;;0.18;100.00;95565.97;4991794;28;20368;-50
2022/12/06 08:01:47;;;;;;;;;;;5.70;69.50;;;0.18;100.00;95569.38;4973938;28;19916;-54
2022/12/06 08:04:13;;;;;;;;;;;5.80;69.50;;;0.21;100.00;95566.34;4989719;28;19913;-53
2022/12/06 08:06:39;;;;;;;;;;;5.80;69.40;;;0.23;100.00;95569.59;4967577;28;19913;-53
2022/12/06 08:09:06;;;;;;;;;;;5.80;69.30;;;0.17;100.00;95562.53;4967304;28;19920;-48
2022/12/06 08:11:32;;;;;;;;;;;5.80;69.50;;;0.21;100.00;95563.75;4972881;28;19909;-53
2022/12/06 08:14:02;;;;;;;;;;;5.80;69.10;;;0.19;100.00;95568.38;4958911;28;19958;-51
2022/12/06 08:16:28;;;;;;;;;;;5.80;69.10;;;0.19;100.00;95567.59;4984439;28;20444;-50
2022/12/06 08:18:54;;;;;;;;;;;5.70;69.10;;;0.19;100.00;95580.69;4976151;28;20023;-52
2022/12/06 08:21:25;;;;;;;;;;;5.70;69.00;;;0.17;100.00;95580.06;4988568;28;19913;-51
2022/12/06 08:24:02;;;;;;;;;;;5.70;69.10;;;0.17;100.00;95578.25;4973625;28;19916;-52
2022/12/06 08:26:35;;;;;;;;;;;5.60;69.00;;;0.13;100.00;95586.72;4973675;28;20372;-51
2022/12/06 08:29:07;;;;;;;;;;;5.60;69.10;;;0.14;100.00;95577.84;4940515;28;20295;-51
2022/12/06 08:31:34;;;;;;;;;;;5.60;69.20;;;0.13;100.00;95592.75;4956437;28;26884;-52
2022/12/06 08:34:02;;;;;;;;;;;5.50;69.20;;;0.09;100.00;95583.66;4991220;28;19995;-49
2022/12/06 08:36:28;;;;;;;;;;;5.50;69.20;;;0.04;100.00;95580.06;4975487;28;19952;-52
2022/12/06 08:38:57;;;;;;;;;;;5.50;69.20;;;-0.01;100.00;95576.19;4994128;28;20119;-55
2022/12/06 08:44:12;;;;;;;;;;;5.50;69.30;;;0.03;100.00;95581.03;4981189;28;19960;-55
2022/12/06 08:46:39;;;;;;;;;;;5.50;69.40;;;0.00;100.00;95584.88;4989246;28;19909;-48
2022/12/06 08:49:05;;;;;;;;;;;5.50;69.40;;;-0.04;100.00;95579.22;5000030;28;20020;-49
2022/12/06 08:51:34;;;;;;;;;;;5.50;69.50;;;-0.05;100.00;95584.66;4993417;28;19909;-54
2022/12/06 08:54:04;;;;;;;;;;;5.40;69.40;;;-0.02;100.00;95590.31;5012502;28;19937;-55
2022/12/06 08:56:33;;;;;;;;;;;5.50;69.50;;;0.00;100.00;95584.88;5009692;28;19963;-54
2022/12/06 08:59:05;;;;;;;;;;;5.60;69.60;;;0.07;100.00;95592.75;5011052;28;20349;-52
2022/12/06 09:01:33;;;;;;;;;;;5.60;69.50;;;0.09;100.00;95590.72;5010469;28;19909;-49
2022/12/06 09:04:04;;;;;;;;;;;5.70;69.50;;;0.12;100.00;95590.31;4991664;28;19917;-46
2022/12/06 09:06:30;;;;;;;;;;;5.70;70.20;;;0.16;100.00;95596.81;5006881;28;19909;-55
2022/12/06 09:09:02;;;;;;;;;;;5.80;69.50;;;0.28;100.00;95605.66;5000026;28;19917;-55
2022/12/06 09:11:31;;;;;;;;;;;6.00;69.50;;;0.39;100.00;95593.81;5000825;28;19920;-54
2022/12/06 09:13:57;;;;;;;;;;;6.30;69.40;;;0.55;100.00;95595.22;4993252;28;19909;-50
2022/12/06 09:16:39;;;;;;;;;;;6.60;69.20;;;0.79;100.00;95594.63;5011428;28;19936;-56
2022/12/06 09:19:05;;;;;;;;;;;7.00;68.90;;;1.00;100.00;95593.56;4994829;28;20006;-50
2022/12/06 09:21:38;;;;;;;;;;;7.40;68.70;;;1.17;100.00;95591.34;4988007;28;20395;-58
2022/12/06 09:24:05;;;;;;;;;;;7.60;68.50;;;1.25;100.00;95598.16;4992168;28;20071;-56
2022/12/06 09:26:32;;;;;;;;;;;7.60;68.30;;;1.26;100.00;95594.56;4974696;28;19959;-55
2022/12/06 09:29:01;;;;;;;;;;;7.70;68.20;;;1.39;100.00;95589.25;4974575;28;20015;-58
2022/12/06 09:31:30;;;;;;;;;;;8.00;68.00;;;1.54;100.00;95592.44;4974213;28;19956;-54
2022/12/06 09:34:10;;;;;;;;;;;8.30;67.80;;;1.77;100.00;95591.13;4991489;28;19921;-56
2022/12/06 09:36:54;;;;;;;;;;;8.50;67.70;;;1.90;100.00;95583.19;5009678;28;19940;-58
2022/12/06 09:39:40;;;;;;;;;;;8.70;67.50;;;1.97;100.00;95580.53;5009355;28;19936;-57
2022/12/06 09:42:25;;;;;;;;;;;8.90;67.10;;;2.20;100.00;95578.19;4978413;28;19932;-58
2022/12/06 09:45:22;;;;;;;;;;;9.10;67.00;;;2.46;97.56;95582.44;5007311;28;19975;-52
2022/12/06 09:48:12;;;;;;;;;;;9.50;66.90;;;2.67;94.39;95583.13;4998478;28;19920;-58
2022/12/06 09:50:59;;;;;;;;;;;9.80;67.00;;;2.93;92.78;95582.88;4986279;28;19909;-58
2022/12/06 09:54:22;;;;;;;;;;;10.20;66.70;;;3.31;92.42;95574.00;4987835;28;20338;-57
2022/12/06 09:57:44;;;;;;;;;;;10.60;66.70;;;3.83;91.62;95576.25;4999383;28;20011;-53
2022/12/06 10:00:39;;;;;;;;;;;11.10;66.80;;;4.11;88.05;95584.41;4960990;28;19931;-58
2022/12/06 10:03:19;;;;;;;;;;;11.70;66.40;;;4.12;82.95;95574.66;4974956;28;20376;-56
2022/12/06 10:06:07;;;;;;;;;;;12.00;65.60;;;4.33;80.90;95573.34;5009332;28;19924;-56
2022/12/06 10:08:57;;;;;;;;;;;12.30;64.90;;;4.40;77.66;95571.41;5008812;28;20286;-58
2022/12/06 10:11:45;;;;;;;;;;;12.50;64.50;;;4.29;76.69;95569.53;5007624;28;19909;-55
2022/12/06 10:14:25;;;;;;;;;;;12.70;63.60;;;4.43;76.97;95573.59;4992325;28;19971;-52
2022/12/06 10:17:46;;;;;;;;;;;12.90;63.20;;;4.64;75.80;95559.88;5009511;28;19908;-54
2022/12/06 10:20:18;;;;;;;;;;;13.10;62.60;;;4.98;75.57;95565.44;4986160;28;19913;-56
2022/12/06 10:23:09;;;;;;;;;;;13.40;62.60;;;5.22;72.87;95574.13;4993094;28;19909;-57
2022/12/06 10:26:21;;;;;;;;;;;13.60;62.60;;;5.55;71.94;95562.16;4999586;28;20383;-52
2022/12/06 10:29:19;;;;;;;;;;;13.90;62.40;;;5.75;68.81;95562.53;4985334;28;19939;-57
2022/12/06 10:31:58;;;;;;;;;;;14.30;61.80;;;6.03;69.29;95563.66;4992690;28;19948;-57
2022/12/06 10:34:48;;;;;;;;;;;14.50;61.50;;;6.29;67.90;95567.53;5005121;28;20082;-55
2022/12/06 10:37:58;;;;;;;;;;;14.80;61.40;;;6.49;66.98;95564.47;5005858;28;19921;-50
2022/12/06 10:41:02;;;;;;;;;;;15.10;61.10;;;6.87;67.19;95566.41;4989508;28;19910;-54
2022/12/06 10:43:51;;;;;;;;;;;15.50;60.70;;;7.13;68.51;95551.69;4985888;28;19912;-51
2022/12/06 10:47:02;;;;;;;;;;;15.90;60.30;;;7.17;67.51;95541.41;5007215;28;20019;-51
2022/12/06 10:49:43;;;;;;;;;;;16.20;59.90;;;7.10;68.06;95546.88;4995905;28;20410;-50
2022/12/06 10:52:45;;;;;;;;;;;16.40;59.20;;;7.39;68.03;95544.88;5007757;28;19916;-52
2022/12/06 10:55:47;;;;;;;;;;;16.60;59.00;;;7.52;66.18;95535.81;4999569;28;19916;-54
2022/12/06 10:58:40;;;;;;;;;;;16.90;58.80;;;7.65;66.54;95540.72;5009789;28;19920;-50
2022/12/06 11:01:22;;;;;;;;;;;17.10;58.40;;;7.93;64.95;95544.25;5003820;28;19913;-54
2022/12/06 11:04:07;;;;;;;;;;;17.30;58.20;;;8.03;65.15;95544.34;4982856;28;19910;-51
2022/12/06 11:06:51;;;;;;;;;;;17.50;57.90;;;8.05;64.22;95546.72;5005194;28;19940;-50
2022/12/06 11:09:37;;;;;;;;;;;17.60;57.30;;;8.10;64.16;95547.59;4988720;28;19909;-49
2022/12/06 11:12:37;;;;;;;;;;;17.70;57.10;;;8.23;63.40;95545.59;5007860;28;20361;-50
2022/12/06 11:15:29;;;;;;;;;;;17.60;57.00;;;8.34;63.24;95548.09;5007618;28;19920;-50
2022/12/06 11:18:16;;;;;;;;;;;17.50;56.80;;;8.44;62.08;95538.66;4973472;28;19924;-50
2022/12/06 11:21:21;;;;;;;;;;;17.60;56.70;;;8.12;60.96;95536.75;4996211;28;20012;-50
2022/12/06 11:24:31;;;;;;;;;;;17.70;56.20;;;8.05;64.08;95539.59;4993482;28;19913;-50
2022/12/06 11:27:04;;;;;;;;;;;17.80;55.70;;;8.23;62.59;95532.34;4901599;29;19918;-50
2022/12/06 11:29:30;;;;;;;;;;;17.80;55.70;;;7.94;62.34;95532.56;4903581;29;19917;-50
2022/12/06 11:32:09;;;;;;;;;;;18.00;55.60;;;7.89;62.92;95535.16;4911599;29;19956;-52
2022/12/06 11:34:54;;;;;;;;;;;18.10;55.40;;;8.32;61.99;95528.19;4913690;29;19918;-51
2022/12/06 11:37:26;;;;;;;;;;;18.30;55.40;;;8.36;62.75;95531.91;4928900;29;19965;-52
2022/12/06 11:40:04;;;;;;;;;;;18.50;55.20;;;8.43;62.30;95527.25;4933421;29;19918;-50
2022/12/06 11:42:30;;;;;;;;;;;18.60;55.00;;;8.63;62.48;95529.28;4913324;29;19933;-52
2022/12/06 11:45:25;;;;;;;;;;;18.80;55.00;;;8.75;62.11;95523.81;4915833;29;19919;-50
2022/12/06 11:47:58;;;;;;;;;;;18.80;54.70;;;8.51;61.50;95520.69;4918637;29;20365;-50
2022/12/06 11:50:35;;;;;;;;;;;18.50;54.70;;;8.22;62.54;95525.44;4901659;29;20321;-53
2022/12/06 11:53:02;;;;;;;;;;;18.00;54.60;;;7.98;62.63;95520.41;4911556;29;20304;-54
2022/12/06 11:55:50;;;;;;;;;;;17.70;54.60;;;8.11;62.79;95513.91;4913319;29;19918;-49
2022/12/06 11:59:11;;;;;;;;;;;17.60;55.20;;;8.19;61.83;95510.81;4994141;28;19909;-50
2022/12/06 12:01:50;;;;;;;;;;;17.40;54.80;;;8.22;63.02;95512.16;4968381;28;20331;-53
2022/12/06 12:04:38;;;;;;;;;;;17.60;54.80;;;8.24;62.22;95512.69;5007315;28;19917;-51
2022/12/06 12:07:23;;;;;;;;;;;17.70;54.80;;;8.37;62.64;95508.81;5007787;28;19944;-51
2022/12/06 12:09:55;;;;;;;;;;;17.50;55.00;;;8.52;62.71;95511.66;4989851;28;19939;-49
2022/12/06 12:15:33;;;;;;;;;;;17.80;54.70;;;8.30;62.26;95499.25;5003944;28;19916;-53
2022/12/06 12:18:02;;;;;;;;;;;17.90;54.50;;;8.32;62.06;95496.31;4973451;28;20287;-54
2022/12/06 12:20:43;;;;;;;;;;;17.60;54.30;;;8.23;61.36;95495.97;4970326;28;19910;-51
2022/12/06 12:23:23;;;;;;;;;;;17.30;54.20;;;8.30;61.64;95493.13;4992241;28;19936;-56
2022/12/06 12:26:02;;;;;;;;;;;17.30;54.10;;;8.09;62.38;95492.94;4998592;28;19978;-54
2022/12/06 12:28:34;;;;;;;;;;;17.50;54.20;;;8.13;63.31;95492.44;4992091;28;20445;-52
2022/12/06 12:31:10;;;;;;;;;;;17.70;54.10;;;8.42;61.74;95491.13;4975369;28;19941;-54
2022/12/06 12:33:36;;;;;;;;;;;17.90;54.10;;;8.54;62.23;95488.31;4988777;28;20376;-55